createdAt,value
2018-06-12T00:01:50.302Z,98262.77
2018-06-12T00:04:21.341Z,98262.01
2018-06-12T00:06:52.594Z,98257.58
2018-06-12T00:09:23.635Z,98257.84
2018-06-12T00:11:54.787Z,98247.47
2018-06-12T00:14:25.861Z,98247.18
2018-06-12T00:16:56.733Z,98252.51
2018-06-12T00:19:29.637Z,98247.11
2018-06-12T00:22:01.036Z,98253.72
2018-06-12T00:24:31.812Z,98245.12
2018-06-12T00:27:02.794Z,98248.58
2018-06-12T00:29:34.857Z,98243.52
2018-06-12T00:32:05.970Z,98245.58
2018-06-12T00:34:36.798Z,98238.50
2018-06-12T00:37:08.239Z,98244.50
2018-06-12T00:39:40.507Z,98235.98
2018-06-12T00:42:11.517Z,98240.08
2018-06-12T00:44:42.728Z,98239.72
2018-06-12T00:47:13.873Z,98239.86
2018-06-12T00:49:44.917Z,98238.08
2018-06-12T00:52:16.008Z,98243.39
2018-06-12T00:54:47.106Z,98238.58
2018-06-12T00:57:17.598Z,98247.53
2018-06-12T00:59:48.439Z,98241.34
2018-06-12T01:02:20.457Z,98241.28
2018-06-12T01:04:51.657Z,98240.11
2018-06-12T01:07:22.609Z,98249.14
2018-06-12T01:09:53.590Z,98245.51
2018-06-12T01:12:26.116Z,98239.70
2018-06-12T01:14:57.069Z,98227.91
2018-06-12T01:17:28.846Z,98230.71
2018-06-12T01:20:00.774Z,98230.52
2018-06-12T01:22:32.008Z,98220.90
2018-06-12T01:25:03.106Z,98217.25
2018-06-12T01:27:34.141Z,98221.14
2018-06-12T01:30:05.326Z,98215.58
2018-06-12T01:32:36.559Z,98222.78
2018-06-12T01:35:07.727Z,98221.08
2018-06-12T01:37:39.491Z,98218.92
2018-06-12T01:40:10.594Z,98214.45
2018-06-12T01:42:42.096Z,98209.55
2018-06-12T01:45:14.161Z,98205.16
2018-06-12T01:47:45.221Z,98206.45
2018-06-12T01:50:16.260Z,98205.94
2018-06-12T01:52:48.502Z,98208.30
2018-06-12T01:55:19.892Z,98204.09
2018-06-12T01:57:50.933Z,98210.47
2018-06-12T02:00:21.905Z,98208.50
2018-06-12T02:02:52.960Z,98213.16
2018-06-12T02:05:24.569Z,98211.46
2018-06-12T02:07:55.543Z,98214.64
2018-06-12T02:10:27.601Z,98215.77
2018-06-12T02:12:59.438Z,98208.00
2018-06-12T02:15:30.810Z,98211.11
2018-06-12T02:18:02.002Z,98209.97
2018-06-12T02:20:33.309Z,98212.44
2018-06-12T02:23:04.213Z,98207.32
2018-06-12T02:25:35.277Z,98205.46
2018-06-12T02:28:07.155Z,98202.47
2018-06-12T02:30:38.696Z,98206.30
2018-06-12T02:33:09.702Z,98208.83
2018-06-12T02:35:40.888Z,98213.50
2018-06-12T02:38:12.057Z,98211.11
2018-06-12T02:40:43.352Z,98214.14
2018-06-12T02:43:14.355Z,98214.33
2018-06-12T02:45:46.444Z,98222.95
2018-06-12T02:48:18.536Z,98212.39
2018-06-12T02:50:50.950Z,98218.18
2018-06-12T02:53:22.326Z,98215.08
2018-06-12T02:55:54.053Z,98211.78
2018-06-12T02:58:25.133Z,98213.72
2018-06-12T03:00:56.265Z,98211.95
2018-06-12T03:03:28.165Z,98208.09
2018-06-12T03:05:59.849Z,98205.84
2018-06-12T03:08:31.752Z,98207.90
2018-06-12T03:11:02.870Z,98209.26
2018-06-12T03:13:33.928Z,98213.27
2018-06-12T03:16:06.071Z,98216.58
2018-06-12T03:18:37.097Z,98209.93
2018-06-12T03:21:08.320Z,98207.24
2018-06-12T03:23:39.653Z,98210.55
2018-06-12T03:26:11.974Z,98207.28
2018-06-12T03:28:43.224Z,98208.95
2018-06-12T03:31:14.183Z,98212.16
2018-06-12T03:33:45.433Z,98218.44
2018-06-12T03:36:16.728Z,98216.14
2018-06-12T03:38:48.043Z,98224.91
2018-06-12T03:41:19.328Z,98226.05
2018-06-12T03:43:51.402Z,98236.09
2018-06-12T03:46:22.746Z,98239.25
2018-06-12T03:48:53.343Z,98235.73
2018-06-12T03:51:24.947Z,98242.85
2018-06-12T03:53:56.573Z,98243.69
2018-06-12T03:56:29.053Z,98243.70
2018-06-12T03:59:01.044Z,98242.05
2018-06-12T04:01:32.315Z,98247.04
2018-06-12T04:04:03.515Z,98235.59
2018-06-12T04:06:38.245Z,98240.04
2018-06-12T04:09:10.921Z,98238.06
2018-06-12T04:11:42.457Z,98231.32
2018-06-12T04:14:14.450Z,98225.21
2018-06-12T04:16:45.692Z,98229.89
2018-06-12T04:19:16.312Z,98227.90
2018-06-12T04:21:47.703Z,98225.23
2018-06-12T04:24:19.037Z,98218.61
2018-06-12T04:26:50.130Z,98217.28
2018-06-12T04:29:22.168Z,98222.89
2018-06-12T04:31:53.940Z,98216.77
2018-06-12T04:34:25.939Z,98219.25
2018-06-12T04:37:00.434Z,98220.56
2018-06-12T04:39:31.967Z,98209.81
2018-06-12T04:42:03.211Z,98215.61
2018-06-12T04:44:34.894Z,98214.60
2018-06-12T04:47:06.989Z,98219.70
2018-06-12T04:49:38.158Z,98219.64
2018-06-12T04:52:09.295Z,98223.71
2018-06-12T04:54:40.513Z,98211.73
2018-06-12T04:57:11.850Z,98216.60
2018-06-12T04:59:43.326Z,98219.02
2018-06-12T05:02:15.223Z,98206.75
2018-06-12T05:04:45.730Z,98208.85
2018-06-12T05:07:17.548Z,98217.50
2018-06-12T05:09:49.332Z,98215.34
2018-06-12T05:12:20.311Z,98219.30
2018-06-12T05:14:51.745Z,98214.89
2018-06-12T05:17:22.907Z,98210.45
2018-06-12T05:19:53.803Z,98209.41
2018-06-12T05:22:25.142Z,98210.66
2018-06-12T05:24:56.741Z,98216.69
2018-06-12T05:27:28.932Z,98217.83
2018-06-12T05:30:00.173Z,98217.48
2018-06-12T05:32:31.020Z,98214.67
2018-06-12T05:35:02.073Z,98220.09
2018-06-12T05:37:33.690Z,98215.07
2018-06-12T05:40:05.932Z,98217.70
2018-06-12T05:42:38.709Z,98218.98
2018-06-12T05:45:10.233Z,98223.24
2018-06-12T05:47:41.849Z,98226.98
2018-06-12T05:50:13.429Z,98234.77
2018-06-12T05:52:45.287Z,98227.22
2018-06-12T05:55:17.005Z,98238.67
2018-06-12T05:57:48.142Z,98232.13
2018-06-12T06:00:19.419Z,98231.59
2018-06-12T06:02:51.220Z,98232.33
2018-06-12T06:05:23.842Z,98227.70
2018-06-12T06:07:56.468Z,98216.41
2018-06-12T06:10:29.166Z,98219.66
2018-06-12T06:13:00.710Z,98219.33
2018-06-12T06:15:32.081Z,98223.59
2018-06-12T06:18:03.195Z,98220.18
2018-06-12T06:20:36.326Z,98218.59
2018-06-12T06:23:08.312Z,98223.73
2018-06-12T06:25:39.990Z,98226.36
2018-06-12T06:28:12.255Z,98223.67
2018-06-12T06:30:43.854Z,98231.05
2018-06-12T06:33:15.686Z,98222.82
2018-06-12T06:35:47.443Z,98220.67
2018-06-12T06:38:19.751Z,98216.24
2018-06-12T06:40:52.606Z,98223.25
2018-06-12T06:43:24.487Z,98221.69
2018-06-12T06:45:55.743Z,98218.01
2018-06-12T06:48:28.060Z,98213.42
2018-06-12T06:51:00.763Z,98226.80
2018-06-12T06:53:33.282Z,98214.26
2018-06-12T06:56:04.763Z,98222.52
2018-06-12T06:58:36.656Z,98215.34
2018-06-12T07:01:08.603Z,98217.41
2018-06-12T07:03:39.192Z,98216.89
2018-06-12T07:06:10.636Z,98217.46
2018-06-12T07:08:41.712Z,98215.62
2018-06-12T07:11:13.592Z,98220.78
2018-06-12T07:13:45.553Z,98211.83
2018-06-12T07:16:16.984Z,98213.17
2018-06-12T07:18:48.233Z,98211.77
2018-06-12T07:21:24.731Z,98213.06
2018-06-12T07:23:55.885Z,98215.78
2018-06-12T07:26:28.515Z,98210.48
2018-06-12T07:29:00.174Z,98213.02
2018-06-12T07:31:31.329Z,98211.20
2018-06-12T07:34:03.148Z,98207.50
2018-06-12T07:36:34.318Z,98205.88
2018-06-12T07:39:08.231Z,98204.31
2018-06-12T07:41:40.246Z,98203.80
2018-06-12T07:44:12.055Z,98215.47
2018-06-12T07:46:43.554Z,98206.14
2018-06-12T07:49:14.767Z,98200.52
2018-06-12T07:51:46.730Z,98203.33
2018-06-12T07:54:18.701Z,98193.69
2018-06-12T07:56:50.184Z,98198.05
2018-06-12T07:59:23.013Z,98205.34
2018-06-12T08:01:55.459Z,98189.74
2018-06-12T08:04:27.653Z,98195.54
2018-06-12T08:07:00.650Z,98201.27
2018-06-12T08:09:32.166Z,98189.80
2018-06-12T08:12:05.941Z,98190.00
2018-06-12T08:14:38.380Z,98203.34
2018-06-12T08:17:10.115Z,98200.72
2018-06-12T08:19:42.326Z,98199.28
2018-06-12T08:22:14.779Z,98196.58
2018-06-12T08:24:46.981Z,98191.48
2018-06-12T08:27:18.502Z,98185.28
2018-06-12T08:29:50.554Z,98180.62
2018-06-12T08:32:21.877Z,98175.62
2018-06-12T08:34:52.880Z,98179.23
2018-06-12T08:37:24.269Z,98177.92
2018-06-12T08:39:56.295Z,98176.14
2018-06-12T08:42:27.487Z,98173.66
2018-06-12T08:44:59.112Z,98188.53
2018-06-12T08:47:29.810Z,98176.38
2018-06-12T08:50:00.997Z,98168.64
2018-06-12T08:52:34.055Z,98172.62
2018-06-12T08:55:05.947Z,98169.34
2018-06-12T08:57:38.129Z,98163.14
2018-06-12T09:00:10.037Z,98168.50
2018-06-12T09:02:41.581Z,98161.86
2018-06-12T09:05:12.767Z,98161.27
2018-06-12T09:07:44.165Z,98172.87
2018-06-12T09:10:14.774Z,98177.14
2018-06-12T09:12:46.742Z,98171.52
2018-06-12T09:15:18.674Z,98179.13
2018-06-12T09:17:51.281Z,98197.20
2018-06-12T09:20:22.859Z,98172.06
2018-06-12T09:22:53.619Z,98177.83
2018-06-12T09:25:24.811Z,98177.38
2018-06-12T09:27:57.411Z,98174.56
2018-06-12T09:30:29.496Z,98172.10
2018-06-12T09:33:01.750Z,98173.95
2018-06-12T09:35:32.999Z,98180.52
2018-06-12T09:38:03.798Z,98172.06
2018-06-12T09:40:35.251Z,98167.15
2018-06-12T09:43:06.636Z,98176.72
2018-06-12T09:45:38.602Z,98166.34
2018-06-12T09:48:10.859Z,98159.17
2018-06-12T09:50:41.571Z,98166.17
2018-06-12T09:53:14.248Z,98160.75
2018-06-12T09:55:46.237Z,98155.78
2018-06-12T09:58:17.652Z,98155.34
2018-06-12T10:00:53.610Z,98160.94
2018-06-12T10:03:25.761Z,98167.80
2018-06-12T10:05:57.240Z,98167.50
2018-06-12T10:08:29.293Z,98160.14
2018-06-12T10:11:04.923Z,98161.30
2018-06-12T10:13:37.220Z,98163.49
2018-06-12T10:16:09.156Z,98160.22
2018-06-12T10:18:40.855Z,98157.05
2018-06-12T10:21:12.342Z,98152.61
2018-06-12T10:23:43.065Z,98149.20
2018-06-12T10:26:14.729Z,98151.70
2018-06-12T10:28:51.016Z,98159.42
2018-06-12T10:31:24.194Z,98151.22
2018-06-12T10:33:58.099Z,98160.31
2018-06-12T10:36:32.243Z,98149.02
2018-06-12T10:39:03.921Z,98150.15
2018-06-12T10:41:39.588Z,98149.37
2018-06-12T10:44:12.544Z,98153.35
2018-06-12T10:46:45.023Z,98159.48
2018-06-12T10:49:17.676Z,98151.63
2018-06-12T10:51:52.768Z,98143.41
2018-06-12T10:54:25.730Z,98144.23
2018-06-12T10:56:57.830Z,98136.11
2018-06-12T10:59:30.759Z,98141.94
2018-06-12T11:02:03.104Z,98138.92
2018-06-12T11:04:34.224Z,98151.53
2018-06-12T11:07:05.336Z,98145.53
2018-06-12T11:09:36.578Z,98130.81
2018-06-12T11:12:07.830Z,98149.45
2018-06-12T11:14:40.314Z,98150.05
2018-06-12T11:17:12.427Z,98154.36
2018-06-12T11:19:43.630Z,98152.03
2018-06-12T11:22:15.264Z,98144.40
2018-06-12T11:24:46.338Z,98155.73
2018-06-12T11:27:17.766Z,98151.79
2018-06-12T11:29:49.360Z,98160.47
2018-06-12T11:32:21.800Z,98150.73
2018-06-12T11:34:54.526Z,98147.18
2018-06-12T11:37:25.983Z,98132.55
2018-06-12T11:39:57.667Z,98136.25
2018-06-12T11:42:29.686Z,98133.23
2018-06-12T11:45:01.105Z,98128.81
2018-06-12T11:47:33.533Z,98134.59
2018-06-12T11:50:06.470Z,98135.23
2018-06-12T11:52:38.670Z,98125.41
2018-06-12T11:55:10.130Z,98134.20
2018-06-12T11:57:41.470Z,98127.61
2018-06-12T12:00:13.472Z,98126.84
2018-06-12T12:02:50.180Z,98124.95
2018-06-12T12:05:22.071Z,98117.27
2018-06-12T12:07:54.939Z,98130.06
2018-06-12T12:10:26.958Z,98117.28
2018-06-12T12:12:58.647Z,98129.38
2018-06-12T12:15:30.265Z,98123.19
2018-06-12T12:18:02.222Z,98114.82
2018-06-12T12:20:34.776Z,98114.66
2018-06-12T12:23:06.086Z,98116.47
2018-06-12T12:25:37.500Z,98113.41
2018-06-12T12:28:08.759Z,98132.44
2018-06-12T12:30:40.614Z,98126.09
2018-06-12T12:33:12.021Z,98107.14
2018-06-12T12:35:44.972Z,98102.44
2018-06-12T12:38:17.533Z,98110.95
2018-06-12T12:40:49.747Z,98110.94
2018-06-12T12:43:21.104Z,98109.64
2018-06-12T12:45:52.400Z,98099.86
2018-06-12T12:48:24.936Z,98101.86
2018-06-12T12:50:57.014Z,98087.87
2018-06-12T12:53:28.845Z,98094.48
2018-06-12T12:56:00.732Z,98089.87
2018-06-12T12:58:31.986Z,98084.92
2018-06-12T13:01:03.263Z,98097.13
2018-06-12T13:03:35.280Z,98085.48
2018-06-12T13:06:06.775Z,98085.36
2018-06-12T13:08:39.359Z,98089.11
2018-06-12T13:11:12.912Z,98084.22
2018-06-12T13:13:45.269Z,98081.51
2018-06-12T13:16:16.547Z,98075.08
2018-06-12T13:18:48.119Z,98093.92
2018-06-12T13:21:20.753Z,98075.89
2018-06-12T13:23:53.259Z,98082.33
2018-06-12T13:26:25.369Z,98078.19
2018-06-12T13:28:57.749Z,98071.42
2018-06-12T13:31:29.089Z,98076.94
2018-06-12T13:34:00.401Z,98068.81
2018-06-12T13:36:31.816Z,98075.47
2018-06-12T13:39:03.448Z,98076.96
2018-06-12T13:41:36.274Z,98072.38
2018-06-12T13:44:07.976Z,98099.00
2018-06-12T13:46:41.155Z,98086.16
2018-06-12T13:49:13.421Z,98086.93
2018-06-12T13:51:45.019Z,98074.31
2018-06-12T13:54:16.447Z,98072.84
2018-06-12T13:56:49.092Z,98073.27
2018-06-12T13:59:20.690Z,98087.39
2018-06-12T14:01:51.942Z,98081.57
2018-06-12T14:04:23.339Z,98086.36
2018-06-12T14:06:56.178Z,98076.08
2018-06-12T14:09:27.504Z,98085.05
2018-06-12T14:11:58.723Z,98080.69
2018-06-12T14:14:33.640Z,98085.44
2018-06-12T14:17:05.516Z,98088.02
2018-06-12T14:19:36.713Z,98077.70
2018-06-12T14:22:08.264Z,98066.97
2018-06-12T14:24:39.553Z,98065.44
2018-06-12T14:27:11.235Z,98072.69
2018-06-12T14:29:43.892Z,98069.14
2018-06-12T14:32:16.171Z,98066.77
2018-06-12T14:34:48.175Z,98065.56
2018-06-12T14:37:19.252Z,98047.85
2018-06-12T14:39:51.057Z,98062.35
2018-06-12T14:42:23.116Z,98055.53
2018-06-12T14:44:56.301Z,98057.95
2018-06-12T14:47:28.080Z,98051.08
2018-06-12T14:49:59.399Z,98047.04
2018-06-12T14:52:30.643Z,98048.05
2018-06-12T14:55:01.798Z,98044.38
2018-06-12T14:57:33.121Z,98039.37
2018-06-12T15:00:04.857Z,98039.85
2018-06-12T15:02:37.220Z,98022.37
2018-06-12T15:05:08.796Z,98026.70
2018-06-12T15:07:40.081Z,98024.02
2018-06-12T15:10:11.622Z,98043.26
2018-06-12T15:12:44.716Z,98028.00
2018-06-12T15:15:16.702Z,98027.81
2018-06-12T15:17:49.016Z,98020.80
2018-06-12T15:20:22.869Z,98025.17
2018-06-12T15:22:54.017Z,98028.80
2018-06-12T15:25:26.062Z,98012.11
2018-06-12T15:27:57.542Z,98014.12
2018-06-12T15:30:28.869Z,98017.50
2018-06-12T15:33:00.363Z,98019.23
2018-06-12T15:35:32.814Z,98042.87
2018-06-12T15:38:03.519Z,98018.87
2018-06-12T15:40:34.890Z,98019.78
2018-06-12T15:43:06.496Z,98021.91
2018-06-12T15:45:37.948Z,98022.19
2018-06-12T15:48:08.933Z,98022.94
2018-06-12T15:50:40.744Z,98022.59
2018-06-12T15:53:13.338Z,98033.52
2018-06-12T15:55:45.301Z,98027.40
2018-06-12T15:58:16.696Z,98029.42
2018-06-12T16:00:47.922Z,98018.80
2018-06-12T16:03:19.316Z,98047.61
2018-06-12T16:05:50.690Z,98032.14
2018-06-12T16:08:23.249Z,98044.72
2018-06-12T16:10:54.147Z,98043.83
2018-06-12T16:13:25.572Z,98034.44
2018-06-12T16:15:56.307Z,98030.28
2018-06-12T16:18:27.970Z,98024.27
2018-06-12T16:20:59.131Z,98011.16
2018-06-12T16:23:30.733Z,98010.28
2018-06-12T16:26:03.850Z,98011.30
2018-06-12T16:28:35.370Z,97997.73
2018-06-12T16:31:06.966Z,97998.94
2018-06-12T16:33:38.738Z,97998.76
2018-06-12T16:36:10.534Z,98000.28
2018-06-12T16:38:41.005Z,98008.03
2018-06-12T16:41:13.901Z,97999.38
2018-06-12T16:43:45.858Z,97999.31
2018-06-12T16:46:17.170Z,98001.71
2018-06-12T16:48:48.432Z,97991.61
2018-06-12T16:51:20.991Z,97996.97
2018-06-12T16:53:52.333Z,97990.89
2018-06-12T16:56:29.204Z,97984.52
2018-06-12T16:59:01.816Z,97997.18
2018-06-12T17:01:34.003Z,98002.94
2018-06-12T17:04:05.864Z,97995.25
2018-06-12T17:06:37.351Z,98007.17
2018-06-12T17:09:10.456Z,98010.52
2018-06-12T17:11:43.297Z,98015.66
2018-06-12T17:14:15.143Z,98030.70
2018-06-12T17:16:46.397Z,98034.22
2018-06-12T17:19:18.296Z,98037.63
2018-06-12T17:21:51.272Z,98033.91
2018-06-12T17:24:24.749Z,98039.24
2018-06-12T17:26:57.182Z,98041.33
2018-06-12T17:29:29.975Z,98035.39
2018-06-12T17:32:02.864Z,98039.45
2018-06-12T17:34:34.962Z,98032.69
2018-06-12T17:37:06.272Z,98035.39
2018-06-12T17:39:37.554Z,98030.55
2018-06-12T17:42:09.650Z,98033.66
2018-06-12T17:44:42.198Z,98029.94
2018-06-12T17:47:13.751Z,98047.72
2018-06-12T17:49:46.422Z,98051.95
2018-06-12T17:52:19.165Z,98059.95
2018-06-12T17:54:51.447Z,98054.99
2018-06-12T17:57:24.804Z,98058.17
2018-06-12T17:59:57.719Z,98055.55
2018-06-12T18:02:30.231Z,98058.83
2018-06-12T18:05:02.801Z,98049.62
2018-06-12T18:07:35.235Z,98048.39
2018-06-12T18:10:07.497Z,98054.45
2018-06-12T18:12:39.552Z,98057.32
2018-06-12T18:15:13.664Z,98055.48
2018-06-12T18:17:46.172Z,98061.53
2018-06-12T18:20:22.402Z,98057.83
2018-06-12T18:22:55.176Z,98064.09
2018-06-12T18:25:28.463Z,98058.04
2018-06-12T18:28:02.397Z,98060.38
2018-06-12T18:30:36.757Z,98063.69
2018-06-12T18:33:08.847Z,98066.13
2018-06-12T18:35:43.828Z,98072.28
2018-06-12T18:38:17.931Z,98072.19
2018-06-12T18:40:52.199Z,98074.13
2018-06-12T18:43:25.777Z,98078.02
2018-06-12T18:45:58.684Z,98075.35
2018-06-12T18:48:32.330Z,98075.86
2018-06-12T18:51:05.857Z,98074.64
2018-06-12T18:53:38.816Z,98077.41
2018-06-12T18:56:11.899Z,98067.89
2018-06-12T18:58:44.632Z,98072.25
2018-06-12T19:01:17.975Z,98064.03
2018-06-12T19:03:50.847Z,98068.52
2018-06-12T19:06:24.598Z,98069.64
2018-06-12T19:08:58.431Z,98073.97
2018-06-12T19:11:32.148Z,98074.27
2018-06-12T19:14:05.835Z,98086.41
2018-06-12T19:16:38.657Z,98093.09
2018-06-12T19:19:11.994Z,98091.98
2018-06-12T19:21:44.804Z,98092.91
2018-06-12T19:24:17.906Z,98096.94
2018-06-12T19:26:50.646Z,98103.34
2018-06-12T19:29:23.929Z,98107.45
2018-06-12T19:31:56.154Z,98113.00
2018-06-12T19:34:28.891Z,98108.39
2018-06-12T19:37:02.054Z,98114.31
2018-06-12T19:39:37.850Z,98120.88
2018-06-12T19:42:11.442Z,98119.55
2018-06-12T19:44:45.603Z,98120.67
2018-06-12T19:47:20.140Z,98124.06
2018-06-12T19:49:53.147Z,98123.67
2018-06-12T19:52:26.315Z,98129.83
2018-06-12T19:54:59.442Z,98129.71
2018-06-12T19:57:33.232Z,98130.12
2018-06-12T20:00:06.434Z,98133.91
2018-06-12T20:02:38.542Z,98132.26
2018-06-12T20:05:13.056Z,98136.58
2018-06-12T20:07:46.934Z,98137.89
2018-06-12T20:10:26.899Z,98135.44
2018-06-12T20:13:01.774Z,98138.09
2018-06-12T20:15:37.087Z,98139.04
2018-06-12T20:18:09.727Z,98134.83
2018-06-12T20:20:43.816Z,98135.84
2018-06-12T20:23:16.530Z,98131.75
2018-06-12T20:25:49.411Z,98133.53
2018-06-12T20:28:22.761Z,98133.11
2018-06-12T20:30:55.463Z,98132.42
2018-06-12T20:33:28.821Z,98129.50
2018-06-12T20:36:01.589Z,98124.23
2018-06-12T20:38:34.224Z,98123.03
2018-06-12T20:41:07.173Z,98127.37
2018-06-12T20:43:40.490Z,98123.25
2018-06-12T20:46:13.547Z,98119.55
2018-06-12T20:48:46.707Z,98125.87
2018-06-12T20:51:19.428Z,98118.72
2018-06-12T20:53:52.175Z,98125.37
2018-06-12T20:56:25.089Z,98126.20
2018-06-12T20:58:57.664Z,98124.04
2018-06-12T21:01:30.910Z,98119.75
2018-06-12T21:04:02.451Z,98119.34
2018-06-12T21:06:34.171Z,98123.50
2018-06-12T21:09:06.780Z,98130.37
2018-06-12T21:11:38.404Z,98135.51
2018-06-12T21:14:10.051Z,98140.70
2018-06-12T21:16:42.008Z,98145.64
2018-06-12T21:19:14.486Z,98146.70
2018-06-12T21:21:45.753Z,98143.95
2018-06-12T21:24:18.802Z,98151.61
2018-06-12T21:26:50.871Z,98150.69
2018-06-12T21:29:22.513Z,98146.77
2018-06-12T21:31:54.506Z,98152.09
2018-06-12T21:34:26.048Z,98158.82
2018-06-12T21:36:57.732Z,98154.86
2018-06-12T21:39:29.527Z,98158.66
2018-06-12T21:42:01.864Z,98155.66
2018-06-12T21:44:32.976Z,98158.52
2018-06-12T21:47:04.268Z,98162.11
2018-06-12T21:49:35.300Z,98162.58
2018-06-12T21:52:06.431Z,98158.10
2018-06-12T21:54:37.693Z,98153.88
2018-06-12T21:57:08.944Z,98160.83
2018-06-12T21:59:40.883Z,98157.31
2018-06-12T22:02:13.094Z,98157.73
2018-06-12T22:04:45.155Z,98162.55
2018-06-12T22:07:16.750Z,98157.36
2018-06-12T22:09:49.343Z,98160.38
2018-06-12T22:12:20.651Z,98160.20
2018-06-12T22:14:52.325Z,98147.97
2018-06-12T22:17:27.240Z,98152.84
2018-06-12T22:19:58.936Z,98155.83
2018-06-12T22:22:29.704Z,98155.44
2018-06-12T22:25:01.356Z,98159.61
2018-06-12T22:27:32.720Z,98158.55
2018-06-12T22:30:05.563Z,98157.91
2018-06-12T22:32:38.859Z,98166.98
2018-06-12T22:35:10.054Z,98168.27
2018-06-12T22:37:41.359Z,98158.93
2018-06-12T22:40:15.193Z,98160.20
2018-06-12T22:42:46.117Z,98153.81
2018-06-12T22:45:20.930Z,98154.35
2018-06-12T22:47:53.239Z,98151.86
2018-06-12T22:50:24.539Z,98146.20
2018-06-12T22:52:55.796Z,98146.74
2018-06-12T22:55:27.443Z,98151.30
2018-06-12T22:57:58.555Z,98153.38
2018-06-12T23:00:29.401Z,98153.27
2018-06-12T23:03:00.636Z,98154.85
2018-06-12T23:05:32.098Z,98162.19
2018-06-12T23:08:03.375Z,98160.38
2018-06-12T23:10:34.833Z,98157.94
2018-06-12T23:13:06.140Z,98152.38
2018-06-12T23:15:37.307Z,98153.76
2018-06-12T23:18:09.265Z,98155.45
2018-06-12T23:21:57.122Z,98150.98
2018-06-12T23:24:30.345Z,98147.38
2018-06-12T23:27:02.165Z,98146.55
2018-06-12T23:29:33.883Z,98152.34
2018-06-12T23:32:06.109Z,98152.22
2018-06-12T23:34:37.882Z,98151.03
2018-06-12T23:37:09.566Z,98150.11
2018-06-12T23:39:40.963Z,98147.98
2018-06-12T23:42:12.207Z,98149.98
2018-06-12T23:44:44.187Z,98150.52
2018-06-12T23:47:15.533Z,98155.02
2018-06-12T23:49:47.018Z,98155.05
2018-06-12T23:52:18.179Z,98163.33
2018-06-12T23:54:50.250Z,98158.58
2018-06-12T23:57:21.418Z,98156.09
2018-06-12T23:59:52.592Z,98150.80
